sensor_id;sensor_type;location;lat;lon;timestamp;P1;durP1;ratioP1;P2;durP2;ratioP2
40745;SDS011;26454;51.164;4.488;2022-12-10T00:01:19;118.47;;;48.25;;
40745;SDS011;26454;51.164;4.488;2022-12-10T00:03:45;120.75;;;48.08;;
40745;SDS011;26454;51.164;4.488;2022-12-10T00:06:13;124.00;;;48.40;;
40745;SDS011;26454;51.164;4.488;2022-12-10T00:08:39;111.15;;;43.50;;
40745;SDS011;26454;51.164;4.488;2022-12-10T00:11:06;129.35;;;50.47;;
40745;SDS011;26454;51.164;4.488;2022-12-10T00:13:33;150.07;;;56.22;;
40745;SDS011;26454;51.164;4.488;2022-12-10T00:16:00;139.32;;;55.25;;
40745;SDS011;26454;51.164;4.488;2022-12-10T00:18:26;122.50;;;49.17;;
40745;SDS011;26454;51.164;4.488;2022-12-10T00:20:52;126.97;;;50.80;;
40745;SDS011;26454;51.164;4.488;2022-12-10T00:23:19;116.10;;;47.70;;
40745;SDS011;26454;51.164;4.488;2022-12-10T00:25:45;129.57;;;52.00;;
40745;SDS011;26454;51.164;4.488;2022-12-10T00:28:12;125.18;;;52.22;;
40745;SDS011;26454;51.164;4.488;2022-12-10T00:30:38;120.57;;;49.47;;
40745;SDS011;26454;51.164;4.488;2022-12-10T00:33:04;129.77;;;50.80;;
40745;SDS011;26454;51.164;4.488;2022-12-10T00:35:30;131.25;;;50.65;;
40745;SDS011;26454;51.164;4.488;2022-12-10T00:37:56;110.93;;;50.17;;
40745;SDS011;26454;51.164;4.488;2022-12-10T00:40:22;113.93;;;48.75;;
40745;SDS011;26454;51.164;4.488;2022-12-10T00:42:48;146.80;;;55.42;;
40745;SDS011;26454;51.164;4.488;2022-12-10T00:45:14;114.85;;;46.92;;
40745;SDS011;26454;51.164;4.488;2022-12-10T00:47:40;111.80;;;49.10;;
40745;SDS011;26454;51.164;4.488;2022-12-10T00:50:06;112.93;;;50.03;;
40745;SDS011;26454;51.164;4.488;2022-12-10T00:52:32;130.05;;;51.30;;
40745;SDS011;26454;51.164;4.488;2022-12-10T00:54:58;115.82;;;48.30;;
40745;SDS011;26454;51.164;4.488;2022-12-10T00:57:24;109.60;;;48.78;;
40745;SDS011;26454;51.164;4.488;2022-12-10T00:59:50;112.85;;;49.47;;
40745;SDS011;26454;51.164;4.488;2022-12-10T01:02:16;115.30;;;49.20;;
40745;SDS011;26454;51.164;4.488;2022-12-10T01:04:42;134.23;;;53.20;;
40745;SDS011;26454;51.164;4.488;2022-12-10T01:07:08;163.00;;;59.72;;
40745;SDS011;26454;51.164;4.488;2022-12-10T01:09:35;130.93;;;54.28;;
40745;SDS011;26454;51.164;4.488;2022-12-10T01:12:02;137.32;;;56.90;;
40745;SDS011;26454;51.164;4.488;2022-12-10T01:14:32;139.13;;;57.35;;
40745;SDS011;26454;51.164;4.488;2022-12-10T01:17:00;135.05;;;56.65;;
40745;SDS011;26454;51.164;4.488;2022-12-10T01:19:29;173.05;;;63.22;;
40745;SDS011;26454;51.164;4.488;2022-12-10T01:21:55;140.60;;;58.60;;
40745;SDS011;26454;51.164;4.488;2022-12-10T01:24:22;151.65;;;59.63;;
40745;SDS011;26454;51.164;4.488;2022-12-10T01:26:48;173.85;;;63.03;;
40745;SDS011;26454;51.164;4.488;2022-12-10T01:29:14;151.15;;;59.92;;
40745;SDS011;26454;51.164;4.488;2022-12-10T01:31:41;143.55;;;58.90;;
40745;SDS011;26454;51.164;4.488;2022-12-10T01:34:07;150.80;;;57.78;;
40745;SDS011;26454;51.164;4.488;2022-12-10T01:36:39;140.55;;;55.70;;
40745;SDS011;26454;51.164;4.488;2022-12-10T01:39:07;150.05;;;59.20;;
40745;SDS011;26454;51.164;4.488;2022-12-10T01:41:35;151.18;;;55.08;;
40745;SDS011;26454;51.164;4.488;2022-12-10T01:44:02;139.57;;;54.53;;
40745;SDS011;26454;51.164;4.488;2022-12-10T01:46:32;167.52;;;61.58;;
40745;SDS011;26454;51.164;4.488;2022-12-10T01:48:59;156.02;;;59.92;;
40745;SDS011;26454;51.164;4.488;2022-12-10T01:51:27;127.32;;;54.75;;
40745;SDS011;26454;51.164;4.488;2022-12-10T01:53:54;129.00;;;51.88;;
40745;SDS011;26454;51.164;4.488;2022-12-10T01:56:21;155.82;;;55.97;;
40745;SDS011;26454;51.164;4.488;2022-12-10T01:58:51;140.45;;;53.65;;
40745;SDS011;26454;51.164;4.488;2022-12-10T02:04:06;186.27;;;60.90;;
40745;SDS011;26454;51.164;4.488;2022-12-10T02:11:54;158.82;;;56.67;;
40745;SDS011;26454;51.164;4.488;2022-12-10T02:14:28;189.40;;;58.50;;
40745;SDS011;26454;51.164;4.488;2022-12-10T02:16:57;145.18;;;56.90;;
40745;SDS011;26454;51.164;4.488;2022-12-10T02:21:50;135.18;;;52.17;;
40745;SDS011;26454;51.164;4.488;2022-12-10T02:24:22;141.38;;;49.83;;
40745;SDS011;26454;51.164;4.488;2022-12-10T02:27:05;189.77;;;53.60;;
40745;SDS011;26454;51.164;4.488;2022-12-10T02:29:32;148.38;;;52.13;;
40745;SDS011;26454;51.164;4.488;2022-12-10T02:34:33;148.15;;;52.05;;
40745;SDS011;26454;51.164;4.488;2022-12-10T02:37:02;114.90;;;46.85;;
40745;SDS011;26454;51.164;4.488;2022-12-10T02:39:32;208.47;;;56.73;;
40745;SDS011;26454;51.164;4.488;2022-12-10T02:42:00;140.18;;;49.60;;
40745;SDS011;26454;51.164;4.488;2022-12-10T02:44:28;132.38;;;48.28;;
40745;SDS011;26454;51.164;4.488;2022-12-10T02:46:55;134.48;;;45.10;;
40745;SDS011;26454;51.164;4.488;2022-12-10T02:49:22;130.98;;;48.38;;
40745;SDS011;26454;51.164;4.488;2022-12-10T02:51:49;180.30;;;52.35;;
40745;SDS011;26454;51.164;4.488;2022-12-10T02:54:33;136.90;;;46.28;;
40745;SDS011;26454;51.164;4.488;2022-12-10T02:57:00;148.25;;;48.35;;
40745;SDS011;26454;51.164;4.488;2022-12-10T03:00:12;184.30;;;54.75;;
40745;SDS011;26454;51.164;4.488;2022-12-10T03:04:56;149.30;;;50.53;;
40745;SDS011;26454;51.164;4.488;2022-12-10T03:07:34;140.48;;;50.83;;
40745;SDS011;26454;51.164;4.488;2022-12-10T03:10:02;138.40;;;48.75;;
40745;SDS011;26454;51.164;4.488;2022-12-10T03:12:29;146.60;;;49.45;;
40745;SDS011;26454;51.164;4.488;2022-12-10T03:14:57;142.43;;;46.58;;
40745;SDS011;26454;51.164;4.488;2022-12-10T03:17:26;140.30;;;44.72;;
40745;SDS011;26454;51.164;4.488;2022-12-10T03:19:53;142.88;;;47.63;;
40745;SDS011;26454;51.164;4.488;2022-12-10T03:22:21;140.85;;;48.20;;
40745;SDS011;26454;51.164;4.488;2022-12-10T03:24:47;145.05;;;46.83;;
40745;SDS011;26454;51.164;4.488;2022-12-10T03:27:13;134.48;;;46.92;;
40745;SDS011;26454;51.164;4.488;2022-12-10T03:29:42;144.40;;;48.83;;
40745;SDS011;26454;51.164;4.488;2022-12-10T03:32:09;156.27;;;50.08;;
40745;SDS011;26454;51.164;4.488;2022-12-10T03:34:36;133.70;;;47.33;;
40745;SDS011;26454;51.164;4.488;2022-12-10T03:37:02;176.45;;;54.30;;
40745;SDS011;26454;51.164;4.488;2022-12-10T03:39:29;154.13;;;50.53;;
40745;SDS011;26454;51.164;4.488;2022-12-10T03:41:55;143.48;;;50.17;;
40745;SDS011;26454;51.164;4.488;2022-12-10T03:44:39;180.30;;;52.80;;
40745;SDS011;26454;51.164;4.488;2022-12-10T03:47:06;185.23;;;53.53;;
40745;SDS011;26454;51.164;4.488;2022-12-10T03:49:35;154.60;;;49.97;;
40745;SDS011;26454;51.164;4.488;2022-12-10T03:52:02;131.10;;;45.13;;
40745;SDS011;26454;51.164;4.488;2022-12-10T03:54:28;160.07;;;50.42;;
40745;SDS011;26454;51.164;4.488;2022-12-10T03:56:54;120.13;;;42.35;;
40745;SDS011;26454;51.164;4.488;2022-12-10T03:59:20;120.43;;;45.20;;
40745;SDS011;26454;51.164;4.488;2022-12-10T04:01:46;149.82;;;50.83;;
40745;SDS011;26454;51.164;4.488;2022-12-10T04:04:13;217.68;;;54.75;;
40745;SDS011;26454;51.164;4.488;2022-12-10T04:06:41;203.77;;;53.53;;
40745;SDS011;26454;51.164;4.488;2022-12-10T04:09:09;157.60;;;49.33;;
40745;SDS011;26454;51.164;4.488;2022-12-10T04:11:35;141.85;;;46.88;;
40745;SDS011;26454;51.164;4.488;2022-12-10T04:14:01;131.82;;;46.17;;
40745;SDS011;26454;51.164;4.488;2022-12-10T04:16:46;145.15;;;49.35;;
40745;SDS011;26454;51.164;4.488;2022-12-10T04:19:13;133.05;;;47.42;;
40745;SDS011;26454;51.164;4.488;2022-12-10T04:21:39;145.23;;;51.45;;
40745;SDS011;26454;51.164;4.488;2022-12-10T04:24:25;155.77;;;50.25;;
40745;SDS011;26454;51.164;4.488;2022-12-10T04:27:11;235.35;;;61.53;;
40745;SDS011;26454;51.164;4.488;2022-12-10T04:29:37;148.95;;;49.97;;
40745;SDS011;26454;51.164;4.488;2022-12-10T04:32:04;168.00;;;52.63;;
40745;SDS011;26454;51.164;4.488;2022-12-10T04:34:30;147.50;;;49.90;;
40745;SDS011;26454;51.164;4.488;2022-12-10T04:36:57;173.27;;;53.78;;
40745;SDS011;26454;51.164;4.488;2022-12-10T04:39:24;157.80;;;47.95;;
40745;SDS011;26454;51.164;4.488;2022-12-10T04:41:50;169.65;;;51.92;;
40745;SDS011;26454;51.164;4.488;2022-12-10T04:44:17;124.82;;;47.90;;
40745;SDS011;26454;51.164;4.488;2022-12-10T04:46:43;167.07;;;51.47;;
40745;SDS011;26454;51.164;4.488;2022-12-10T04:49:10;146.65;;;46.08;;
40745;SDS011;26454;51.164;4.488;2022-12-10T04:51:36;156.13;;;48.90;;
40745;SDS011;26454;51.164;4.488;2022-12-10T04:54:02;145.07;;;48.20;;
40745;SDS011;26454;51.164;4.488;2022-12-10T04:56:28;167.63;;;48.42;;
40745;SDS011;26454;51.164;4.488;2022-12-10T04:58:55;110.90;;;42.03;;
40745;SDS011;26454;51.164;4.488;2022-12-10T05:01:22;112.07;;;42.45;;
40745;SDS011;26454;51.164;4.488;2022-12-10T05:03:49;109.72;;;41.95;;
40745;SDS011;26454;51.164;4.488;2022-12-10T05:06:15;139.20;;;47.40;;
40745;SDS011;26454;51.164;4.488;2022-12-10T05:08:42;134.73;;;44.90;;
40745;SDS011;26454;51.164;4.488;2022-12-10T05:11:16;210.93;;;54.92;;
40745;SDS011;26454;51.164;4.488;2022-12-10T05:13:43;137.13;;;45.58;;
40745;SDS011;26454;51.164;4.488;2022-12-10T05:16:10;231.90;;;56.40;;
40745;SDS011;26454;51.164;4.488;2022-12-10T05:18:36;200.10;;;54.05;;
40745;SDS011;26454;51.164;4.488;2022-12-10T05:21:03;281.48;;;57.70;;
40745;SDS011;26454;51.164;4.488;2022-12-10T05:23:30;201.77;;;47.60;;
40745;SDS011;26454;51.164;4.488;2022-12-10T05:28:25;180.98;;;49.65;;
40745;SDS011;26454;51.164;4.488;2022-12-10T05:30:51;141.55;;;42.90;;
40745;SDS011;26454;51.164;4.488;2022-12-10T05:33:17;141.77;;;46.67;;
40745;SDS011;26454;51.164;4.488;2022-12-10T05:35:43;142.20;;;42.85;;
40745;SDS011;26454;51.164;4.488;2022-12-10T05:38:09;142.48;;;44.65;;
40745;SDS011;26454;51.164;4.488;2022-12-10T05:40:36;242.80;;;56.90;;
40745;SDS011;26454;51.164;4.488;2022-12-10T05:43:02;155.50;;;45.38;;
40745;SDS011;26454;51.164;4.488;2022-12-10T05:45:29;101.65;;;38.55;;
40745;SDS011;26454;51.164;4.488;2022-12-10T05:47:57;252.82;;;57.60;;
40745;SDS011;26454;51.164;4.488;2022-12-10T05:50:23;145.35;;;46.58;;
40745;SDS011;26454;51.164;4.488;2022-12-10T05:52:52;160.50;;;46.65;;
40745;SDS011;26454;51.164;4.488;2022-12-10T05:55:18;138.77;;;44.28;;
40745;SDS011;26454;51.164;4.488;2022-12-10T05:57:44;301.70;;;58.83;;
40745;SDS011;26454;51.164;4.488;2022-12-10T06:00:10;152.20;;;47.00;;
40745;SDS011;26454;51.164;4.488;2022-12-10T06:02:37;138.82;;;44.60;;
40745;SDS011;26454;51.164;4.488;2022-12-10T06:05:04;172.80;;;45.00;;
40745;SDS011;26454;51.164;4.488;2022-12-10T06:07:30;175.48;;;47.53;;
40745;SDS011;26454;51.164;4.488;2022-12-10T06:09:56;203.55;;;47.97;;
40745;SDS011;26454;51.164;4.488;2022-12-10T06:12:22;248.23;;;55.42;;
40745;SDS011;26454;51.164;4.488;2022-12-10T06:14:48;188.90;;;48.40;;
40745;SDS011;26454;51.164;4.488;2022-12-10T06:17:15;158.43;;;47.33;;
40745;SDS011;26454;51.164;4.488;2022-12-10T06:19:41;151.30;;;46.92;;
40745;SDS011;26454;51.164;4.488;2022-12-10T06:22:07;112.78;;;43.22;;
40745;SDS011;26454;51.164;4.488;2022-12-10T06:24:33;137.82;;;45.22;;
40745;SDS011;26454;51.164;4.488;2022-12-10T06:26:59;139.25;;;46.85;;
40745;SDS011;26454;51.164;4.488;2022-12-10T06:29:25;128.05;;;43.50;;
40745;SDS011;26454;51.164;4.488;2022-12-10T06:31:51;109.50;;;42.33;;
40745;SDS011;26454;51.164;4.488;2022-12-10T06:34:17;125.35;;;44.53;;
40745;SDS011;26454;51.164;4.488;2022-12-10T06:36:43;186.38;;;50.05;;
40745;SDS011;26454;51.164;4.488;2022-12-10T06:39:09;174.00;;;48.20;;
40745;SDS011;26454;51.164;4.488;2022-12-10T06:41:35;128.65;;;44.80;;
40745;SDS011;26454;51.164;4.488;2022-12-10T06:44:01;100.43;;;38.33;;
40745;SDS011;26454;51.164;4.488;2022-12-10T06:46:27;136.18;;;44.65;;
40745;SDS011;26454;51.164;4.488;2022-12-10T06:48:53;155.50;;;45.97;;
40745;SDS011;26454;51.164;4.488;2022-12-10T06:51:19;121.57;;;44.22;;
40745;SDS011;26454;51.164;4.488;2022-12-10T06:53:47;164.77;;;51.45;;
40745;SDS011;26454;51.164;4.488;2022-12-10T06:56:14;215.38;;;49.10;;
40745;SDS011;26454;51.164;4.488;2022-12-10T06:58:41;110.53;;;40.50;;
40745;SDS011;26454;51.164;4.488;2022-12-10T07:03:42;193.38;;;53.97;;
40745;SDS011;26454;51.164;4.488;2022-12-10T07:06:08;119.95;;;42.10;;
40745;SDS011;26454;51.164;4.488;2022-12-10T07:08:36;145.50;;;47.63;;
40745;SDS011;26454;51.164;4.488;2022-12-10T07:11:05;185.30;;;48.80;;
40745;SDS011;26454;51.164;4.488;2022-12-10T07:13:32;131.40;;;42.33;;
40745;SDS011;26454;51.164;4.488;2022-12-10T07:15:58;135.88;;;41.38;;
40745;SDS011;26454;51.164;4.488;2022-12-10T07:18:24;156.30;;;48.28;;
40745;SDS011;26454;51.164;4.488;2022-12-10T07:20:50;206.65;;;50.90;;
40745;SDS011;26454;51.164;4.488;2022-12-10T07:23:16;161.50;;;49.50;;
40745;SDS011;26454;51.164;4.488;2022-12-10T07:25:42;161.15;;;46.95;;
40745;SDS011;26454;51.164;4.488;2022-12-10T07:28:08;167.32;;;47.08;;
40745;SDS011;26454;51.164;4.488;2022-12-10T07:30:35;127.63;;;40.47;;
40745;SDS011;26454;51.164;4.488;2022-12-10T07:33:01;210.60;;;55.08;;
40745;SDS011;26454;51.164;4.488;2022-12-10T07:35:27;173.95;;;48.92;;
40745;SDS011;26454;51.164;4.488;2022-12-10T07:37:53;253.25;;;55.53;;
40745;SDS011;26454;51.164;4.488;2022-12-10T07:40:19;159.35;;;45.15;;
40745;SDS011;26454;51.164;4.488;2022-12-10T07:42:45;127.47;;;45.35;;
40745;SDS011;26454;51.164;4.488;2022-12-10T07:45:11;114.80;;;42.30;;
40745;SDS011;26454;51.164;4.488;2022-12-10T07:47:37;158.68;;;45.95;;
40745;SDS011;26454;51.164;4.488;2022-12-10T07:50:04;201.90;;;50.50;;
40745;SDS011;26454;51.164;4.488;2022-12-10T07:52:30;137.25;;;44.08;;
40745;SDS011;26454;51.164;4.488;2022-12-10T07:54:56;208.68;;;49.40;;
40745;SDS011;26454;51.164;4.488;2022-12-10T07:57:22;128.30;;;41.85;;
40745;SDS011;26454;51.164;4.488;2022-12-10T07:59:48;129.68;;;43.28;;
40745;SDS011;26454;51.164;4.488;2022-12-10T08:02:14;203.48;;;52.33;;
40745;SDS011;26454;51.164;4.488;2022-12-10T08:04:40;190.63;;;49.92;;
40745;SDS011;26454;51.164;4.488;2022-12-10T08:07:06;140.13;;;45.00;;
40745;SDS011;26454;51.164;4.488;2022-12-10T08:09:32;143.38;;;44.95;;
40745;SDS011;26454;51.164;4.488;2022-12-10T08:11:59;131.73;;;44.42;;
40745;SDS011;26454;51.164;4.488;2022-12-10T08:14:25;122.55;;;45.65;;
40745;SDS011;26454;51.164;4.488;2022-12-10T08:16:52;168.18;;;45.97;;
40745;SDS011;26454;51.164;4.488;2022-12-10T08:19:18;160.85;;;47.92;;
40745;SDS011;26454;51.164;4.488;2022-12-10T08:21:44;150.40;;;48.55;;
40745;SDS011;26454;51.164;4.488;2022-12-10T08:24:10;141.43;;;46.42;;
40745;SDS011;26454;51.164;4.488;2022-12-10T08:26:36;173.02;;;48.70;;
40745;SDS011;26454;51.164;4.488;2022-12-10T08:29:03;145.88;;;42.50;;
40745;SDS011;26454;51.164;4.488;2022-12-10T08:31:29;161.52;;;48.70;;
40745;SDS011;26454;51.164;4.488;2022-12-10T08:33:56;126.82;;;41.75;;
40745;SDS011;26454;51.164;4.488;2022-12-10T08:36:22;128.38;;;42.60;;
40745;SDS011;26454;51.164;4.488;2022-12-10T08:38:48;165.20;;;44.55;;
40745;SDS011;26454;51.164;4.488;2022-12-10T08:41:15;105.72;;;41.53;;
40745;SDS011;26454;51.164;4.488;2022-12-10T08:43:42;195.93;;;50.35;;
40745;SDS011;26454;51.164;4.488;2022-12-10T08:46:08;165.10;;;48.92;;
40745;SDS011;26454;51.164;4.488;2022-12-10T08:48:40;154.60;;;46.88;;
40745;SDS011;26454;51.164;4.488;2022-12-10T08:51:07;139.52;;;42.72;;
40745;SDS011;26454;51.164;4.488;2022-12-10T08:53:33;128.27;;;45.45;;
40745;SDS011;26454;51.164;4.488;2022-12-10T08:56:00;168.38;;;49.25;;
40745;SDS011;26454;51.164;4.488;2022-12-10T08:58:26;157.57;;;48.42;;
40745;SDS011;26454;51.164;4.488;2022-12-10T09:00:52;183.10;;;51.67;;
40745;SDS011;26454;51.164;4.488;2022-12-10T09:03:18;160.90;;;45.92;;
40745;SDS011;26454;51.164;4.488;2022-12-10T09:05:46;183.65;;;51.35;;
40745;SDS011;26454;51.164;4.488;2022-12-10T09:08:13;168.13;;;46.55;;
40745;SDS011;26454;51.164;4.488;2022-12-10T09:10:39;126.53;;;43.92;;
40745;SDS011;26454;51.164;4.488;2022-12-10T09:13:06;153.27;;;45.10;;
40745;SDS011;26454;51.164;4.488;2022-12-10T09:15:32;134.60;;;41.45;;
40745;SDS011;26454;51.164;4.488;2022-12-10T09:17:59;121.30;;;38.53;;
40745;SDS011;26454;51.164;4.488;2022-12-10T09:20:25;134.15;;;44.30;;
40745;SDS011;26454;51.164;4.488;2022-12-10T09:22:51;158.73;;;46.80;;
40745;SDS011;26454;51.164;4.488;2022-12-10T09:25:17;145.23;;;45.00;;
40745;SDS011;26454;51.164;4.488;2022-12-10T09:27:47;164.90;;;46.25;;
40745;SDS011;26454;51.164;4.488;2022-12-10T09:30:13;189.80;;;51.42;;
40745;SDS011;26454;51.164;4.488;2022-12-10T09:32:39;135.07;;;43.72;;
40745;SDS011;26454;51.164;4.488;2022-12-10T09:35:06;131.52;;;46.75;;
40745;SDS011;26454;51.164;4.488;2022-12-10T09:37:33;148.63;;;48.78;;
40745;SDS011;26454;51.164;4.488;2022-12-10T09:39:59;161.88;;;50.65;;
40745;SDS011;26454;51.164;4.488;2022-12-10T09:53:12;213.05;;;59.08;;
40745;SDS011;26454;51.164;4.488;2022-12-10T09:55:41;167.80;;;53.42;;
40745;SDS011;26454;51.164;4.488;2022-12-10T09:58:09;158.65;;;54.83;;
40745;SDS011;26454;51.164;4.488;2022-12-10T10:00:38;190.45;;;58.03;;
40745;SDS011;26454;51.164;4.488;2022-12-10T10:03:05;153.75;;;51.75;;
40745;SDS011;26454;51.164;4.488;2022-12-10T10:05:46;136.00;;;49.63;;
40745;SDS011;26454;51.164;4.488;2022-12-10T10:08:14;154.38;;;49.20;;
40745;SDS011;26454;51.164;4.488;2022-12-10T10:10:45;119.72;;;45.63;;
40745;SDS011;26454;51.164;4.488;2022-12-10T10:15:43;134.73;;;50.15;;
40745;SDS011;26454;51.164;4.488;2022-12-10T10:18:29;145.10;;;50.15;;
40745;SDS011;26454;51.164;4.488;2022-12-10T10:20:58;179.00;;;56.05;;
40745;SDS011;26454;51.164;4.488;2022-12-10T10:23:25;169.80;;;57.30;;
40745;SDS011;26454;51.164;4.488;2022-12-10T10:25:51;116.20;;;45.15;;
40745;SDS011;26454;51.164;4.488;2022-12-10T10:28:19;149.88;;;52.55;;
40745;SDS011;26454;51.164;4.488;2022-12-10T10:30:46;174.50;;;52.72;;
40745;SDS011;26454;51.164;4.488;2022-12-10T10:33:15;138.88;;;46.78;;
40745;SDS011;26454;51.164;4.488;2022-12-10T10:35:45;129.40;;;45.65;;
40745;SDS011;26454;51.164;4.488;2022-12-10T10:38:28;144.73;;;46.25;;
40745;SDS011;26454;51.164;4.488;2022-12-10T10:41:02;186.20;;;49.33;;
40745;SDS011;26454;51.164;4.488;2022-12-10T10:43:32;101.93;;;41.10;;
40745;SDS011;26454;51.164;4.488;2022-12-10T10:46:00;116.95;;;42.20;;
40745;SDS011;26454;51.164;4.488;2022-12-10T10:48:27;122.80;;;41.95;;
40745;SDS011;26454;51.164;4.488;2022-12-10T10:58:36;114.88;;;40.55;;
40745;SDS011;26454;51.164;4.488;2022-12-10T11:01:11;107.70;;;37.35;;
40745;SDS011;26454;51.164;4.488;2022-12-10T11:03:37;104.00;;;36.13;;
40745;SDS011;26454;51.164;4.488;2022-12-10T11:06:11;119.00;;;42.33;;
40745;SDS011;26454;51.164;4.488;2022-12-10T11:08:38;110.55;;;38.85;;
40745;SDS011;26454;51.164;4.488;2022-12-10T11:11:06;116.40;;;40.33;;
40745;SDS011;26454;51.164;4.488;2022-12-10T11:13:35;113.47;;;41.47;;
40745;SDS011;26454;51.164;4.488;2022-12-10T11:16:11;139.60;;;43.90;;
40745;SDS011;26454;51.164;4.488;2022-12-10T11:18:39;104.57;;;35.65;;
40745;SDS011;26454;51.164;4.488;2022-12-10T11:23:41;106.95;;;37.03;;
40745;SDS011;26454;51.164;4.488;2022-12-10T11:31:13;105.72;;;37.20;;
40745;SDS011;26454;51.164;4.488;2022-12-10T11:36:21;131.10;;;42.05;;
40745;SDS011;26454;51.164;4.488;2022-12-10T11:41:40;129.40;;;43.97;;
40745;SDS011;26454;51.164;4.488;2022-12-10T11:44:13;123.30;;;40.05;;
40745;SDS011;26454;51.164;4.488;2022-12-10T11:54:58;109.75;;;41.22;;
40745;SDS011;26454;51.164;4.488;2022-12-10T12:05:12;126.25;;;40.00;;
40745;SDS011;26454;51.164;4.488;2022-12-10T12:08:00;92.07;;;35.97;;
40745;SDS011;26454;51.164;4.488;2022-12-10T12:13:04;104.97;;;38.83;;
40745;SDS011;26454;51.164;4.488;2022-12-10T12:15:32;100.13;;;38.58;;
40745;SDS011;26454;51.164;4.488;2022-12-10T12:18:04;104.40;;;39.92;;
40745;SDS011;26454;51.164;4.488;2022-12-10T12:20:37;166.43;;;45.05;;
40745;SDS011;26454;51.164;4.488;2022-12-10T12:23:49;108.50;;;36.67;;
40745;SDS011;26454;51.164;4.488;2022-12-10T12:25:55;82.68;;;33.63;;
40745;SDS011;26454;51.164;4.488;2022-12-10T12:28:36;104.03;;;39.17;;
40745;SDS011;26454;51.164;4.488;2022-12-10T12:31:09;114.22;;;38.08;;
40745;SDS011;26454;51.164;4.488;2022-12-10T12:33:47;111.95;;;40.00;;
40745;SDS011;26454;51.164;4.488;2022-12-10T12:36:27;140.50;;;42.60;;
40745;SDS011;26454;51.164;4.488;2022-12-10T12:38:55;123.10;;;42.42;;
40745;SDS011;26454;51.164;4.488;2022-12-10T12:44:36;108.25;;;38.97;;
40745;SDS011;26454;51.164;4.488;2022-12-10T12:46:41;84.88;;;34.40;;
40745;SDS011;26454;51.164;4.488;2022-12-10T12:54:21;108.22;;;37.28;;
40745;SDS011;26454;51.164;4.488;2022-12-10T13:04:09;103.43;;;38.17;;
40745;SDS011;26454;51.164;4.488;2022-12-10T13:06:38;95.90;;;36.92;;
40745;SDS011;26454;51.164;4.488;2022-12-10T13:11:40;115.82;;;40.17;;
40745;SDS011;26454;51.164;4.488;2022-12-10T13:22:06;111.68;;;39.15;;
40745;SDS011;26454;51.164;4.488;2022-12-10T13:29:46;88.22;;;33.55;;
40745;SDS011;26454;51.164;4.488;2022-12-10T13:32:18;101.95;;;37.38;;
40745;SDS011;26454;51.164;4.488;2022-12-10T13:34:44;90.13;;;35.22;;
40745;SDS011;26454;51.164;4.488;2022-12-10T13:37:14;93.53;;;36.90;;
40745;SDS011;26454;51.164;4.488;2022-12-10T13:39:59;95.20;;;36.13;;
40745;SDS011;26454;51.164;4.488;2022-12-10T13:42:28;102.47;;;37.90;;
40745;SDS011;26454;51.164;4.488;2022-12-10T13:47:53;92.82;;;35.63;;
40745;SDS011;26454;51.164;4.488;2022-12-10T13:50:20;88.30;;;34.50;;
40745;SDS011;26454;51.164;4.488;2022-12-10T13:53:07;80.28;;;32.38;;
40745;SDS011;26454;51.164;4.488;2022-12-10T13:55:38;144.07;;;42.88;;
40745;SDS011;26454;51.164;4.488;2022-12-10T14:00:46;75.97;;;33.25;;
40745;SDS011;26454;51.164;4.488;2022-12-10T14:03:23;79.40;;;34.65;;
40745;SDS011;26454;51.164;4.488;2022-12-10T14:08:39;112.55;;;40.88;;
40745;SDS011;26454;51.164;4.488;2022-12-10T14:11:06;87.72;;;37.15;;
40745;SDS011;26454;51.164;4.488;2022-12-10T14:13:44;86.63;;;38.17;;
40745;SDS011;26454;51.164;4.488;2022-12-10T14:16:13;95.55;;;36.28;;
40745;SDS011;26454;51.164;4.488;2022-12-10T14:18:43;85.80;;;34.83;;
40745;SDS011;26454;51.164;4.488;2022-12-10T14:21:11;102.78;;;39.03;;
40745;SDS011;26454;51.164;4.488;2022-12-10T14:23:43;99.18;;;35.60;;
40745;SDS011;26454;51.164;4.488;2022-12-10T14:28:39;92.70;;;35.28;;
40745;SDS011;26454;51.164;4.488;2022-12-10T14:31:06;93.32;;;37.22;;
40745;SDS011;26454;51.164;4.488;2022-12-10T14:33:35;131.85;;;44.38;;
40745;SDS011;26454;51.164;4.488;2022-12-10T14:36:03;103.57;;;39.45;;
40745;SDS011;26454;51.164;4.488;2022-12-10T14:38:30;105.38;;;40.60;;
40745;SDS011;26454;51.164;4.488;2022-12-10T14:41:00;107.88;;;42.88;;
40745;SDS011;26454;51.164;4.488;2022-12-10T14:45:59;96.55;;;38.00;;
40745;SDS011;26454;51.164;4.488;2022-12-10T14:48:26;105.40;;;37.15;;
40745;SDS011;26454;51.164;4.488;2022-12-10T14:50:52;126.70;;;44.15;;
40745;SDS011;26454;51.164;4.488;2022-12-10T14:53:23;107.68;;;40.05;;
40745;SDS011;26454;51.164;4.488;2022-12-10T14:55:50;99.03;;;41.10;;
40745;SDS011;26454;51.164;4.488;2022-12-10T14:58:37;100.75;;;40.15;;
40745;SDS011;26454;51.164;4.488;2022-12-10T15:01:04;96.07;;;41.53;;
40745;SDS011;26454;51.164;4.488;2022-12-10T15:03:32;105.15;;;37.95;;
40745;SDS011;26454;51.164;4.488;2022-12-10T15:05:59;89.00;;;35.10;;
40745;SDS011;26454;51.164;4.488;2022-12-10T15:08:26;92.97;;;36.42;;
40745;SDS011;26454;51.164;4.488;2022-12-10T15:10:54;99.47;;;36.60;;
40745;SDS011;26454;51.164;4.488;2022-12-10T15:13:34;87.95;;;35.47;;
40745;SDS011;26454;51.164;4.488;2022-12-10T15:16:03;89.72;;;35.00;;
40745;SDS011;26454;51.164;4.488;2022-12-10T15:18:33;97.35;;;37.50;;
40745;SDS011;26454;51.164;4.488;2022-12-10T15:21:04;93.25;;;37.67;;
40745;SDS011;26454;51.164;4.488;2022-12-10T15:23:32;93.53;;;38.13;;
40745;SDS011;26454;51.164;4.488;2022-12-10T15:26:01;99.93;;;36.77;;
40745;SDS011;26454;51.164;4.488;2022-12-10T15:28:29;92.35;;;34.60;;
40745;SDS011;26454;51.164;4.488;2022-12-10T15:33:45;102.60;;;36.55;;
40745;SDS011;26454;51.164;4.488;2022-12-10T15:36:18;103.53;;;37.97;;
40745;SDS011;26454;51.164;4.488;2022-12-10T15:38:45;101.38;;;37.80;;
40745;SDS011;26454;51.164;4.488;2022-12-10T15:41:22;105.70;;;37.65;;
40745;SDS011;26454;51.164;4.488;2022-12-10T15:44:01;101.60;;;38.65;;
40745;SDS011;26454;51.164;4.488;2022-12-10T15:46:28;104.10;;;39.40;;
40745;SDS011;26454;51.164;4.488;2022-12-10T15:48:54;106.40;;;37.92;;
40745;SDS011;26454;51.164;4.488;2022-12-10T15:51:20;96.47;;;37.47;;
40745;SDS011;26454;51.164;4.488;2022-12-10T15:53:46;103.97;;;40.72;;
40745;SDS011;26454;51.164;4.488;2022-12-10T15:56:12;113.85;;;43.38;;
40745;SDS011;26454;51.164;4.488;2022-12-10T15:58:39;125.03;;;41.30;;
40745;SDS011;26454;51.164;4.488;2022-12-10T16:01:05;122.82;;;44.67;;
40745;SDS011;26454;51.164;4.488;2022-12-10T16:03:32;113.32;;;39.58;;
40745;SDS011;26454;51.164;4.488;2022-12-10T16:05:58;98.40;;;37.55;;
40745;SDS011;26454;51.164;4.488;2022-12-10T16:08:25;122.03;;;41.88;;
40745;SDS011;26454;51.164;4.488;2022-12-10T16:10:53;132.27;;;42.60;;
40745;SDS011;26454;51.164;4.488;2022-12-10T16:13:24;127.68;;;41.63;;
40745;SDS011;26454;51.164;4.488;2022-12-10T16:15:55;103.10;;;39.08;;
40745;SDS011;26454;51.164;4.488;2022-12-10T16:18:23;123.88;;;45.85;;